Terminal Aerodrome Forecast
Issued by NWS

Home | Current Version | Previous Version | Text Only | Print | Product List | Glossary On
Versions: 1 2 3 4 5 6 7 8 9 10 11 12 13 14 15 16 17 18 19 20
000
FTUS44 KEWX 161100
TAFSSF
TAF
KSSF 161138Z 1612/1712 14006KT P6SM SKC
     FM161500 15014KT P6SM SCT250
     FM170700 12008KT P6SM OVC015
     FM171000 12010KT 5SM -DZ BR BKN009=

USA.gov is the U.S. government's official web portal to all federal, state and local government web resources and services.